sensor_id;sensor_type;location;lat;lon;timestamp;pressure;altitude;pressure_sealevel;temperature;humidity
71976;BME280;68326;52.124;5.424;2023-04-02T00:08:22;101260.59;;;6.74;97.23
71976;BME280;68326;52.124;5.424;2023-04-02T00:10:52;101257.25;;;6.71;97.26
71976;BME280;68326;52.124;5.424;2023-04-02T00:13:48;101258.06;;;6.71;98.08
71976;BME280;68326;52.124;5.424;2023-04-02T00:16:18;101259.78;;;6.72;97.38
71976;BME280;68326;52.124;5.424;2023-04-02T00:18:53;101269.19;;;6.75;97.42
71976;BME280;68326;52.124;5.424;2023-04-02T00:21:23;101266.75;;;6.70;97.22
71976;BME280;68326;52.124;5.424;2023-04-02T00:23:55;101273.72;;;6.67;97.16
71976;BME280;68326;52.124;5.424;2023-04-02T00:26:42;101272.19;;;6.61;97.14
71976;BME280;68326;52.124;5.424;2023-04-02T00:29:11;101279.84;;;6.64;97.73
71976;BME280;68326;52.124;5.424;2023-04-02T00:31:41;101277.25;;;6.64;97.30
71976;BME280;68326;52.124;5.424;2023-04-02T00:34:16;101287.69;;;6.61;96.97
71976;BME280;68326;52.124;5.424;2023-04-02T00:36:45;101285.09;;;6.61;96.96
71976;BME280;68326;52.124;5.424;2023-04-02T00:39:18;101294.41;;;6.67;96.63
71976;BME280;68326;52.124;5.424;2023-04-02T00:41:45;101298.72;;;6.68;96.17
71976;BME280;68326;52.124;5.424;2023-04-02T00:44:13;101303.88;;;6.68;95.88
71976;BME280;68326;52.124;5.424;2023-04-02T00:46:42;101316.94;;;6.63;96.66
71976;BME280;68326;52.124;5.424;2023-04-02T00:49:28;101318.59;;;6.66;95.98
71976;BME280;68326;52.124;5.424;2023-04-02T00:52:04;101316.97;;;6.62;96.91
71976;BME280;68326;52.124;5.424;2023-04-02T00:54:37;101331.59;;;6.63;96.56
71976;BME280;68326;52.124;5.424;2023-04-02T00:57:12;101329.97;;;6.59;96.29
71976;BME280;68326;52.124;5.424;2023-04-02T00:59:59;101333.38;;;6.61;96.20
71976;BME280;68326;52.124;5.424;2023-04-02T01:02:30;101342.00;;;6.61;95.95
71976;BME280;68326;52.124;5.424;2023-04-02T01:05:00;101350.72;;;6.57;96.06
71976;BME280;68326;52.124;5.424;2023-04-02T01:07:50;101351.53;;;6.59;95.86
71976;BME280;68326;52.124;5.424;2023-04-02T01:10:42;101355.00;;;6.57;96.07
71976;BME280;68326;52.124;5.424;2023-04-02T01:13:35;101361.06;;;6.57;96.38
71976;BME280;68326;52.124;5.424;2023-04-02T01:16:17;101363.78;;;6.51;95.37
71976;BME280;68326;52.124;5.424;2023-04-02T01:21:39;101376.59;;;6.56;95.75
71976;BME280;68326;52.124;5.424;2023-04-02T01:24:13;101380.16;;;6.51;95.49
71976;BME280;68326;52.124;5.424;2023-04-02T01:26:53;101383.66;;;6.49;95.31
71976;BME280;68326;52.124;5.424;2023-04-02T01:32:07;101389.78;;;6.45;94.63
71976;BME280;68326;52.124;5.424;2023-04-02T01:34:36;101394.97;;;6.45;95.13
71976;BME280;68326;52.124;5.424;2023-04-02T01:45:12;101403.97;;;6.28;93.81
71976;BME280;68326;52.124;5.424;2023-04-02T01:47:39;101410.09;;;6.24;93.00
71976;BME280;68326;52.124;5.424;2023-04-02T01:50:27;101419.44;;;6.30;94.11
71976;BME280;68326;52.124;5.424;2023-04-02T01:53:03;101416.97;;;6.25;93.27
71976;BME280;68326;52.124;5.424;2023-04-02T01:55:46;101421.34;;;6.22;93.23
71976;BME280;68326;52.124;5.424;2023-04-02T01:58:18;101442.03;;;6.22;93.39
71976;BME280;68326;52.124;5.424;2023-04-02T02:00:52;101440.38;;;6.19;92.43
71976;BME280;68326;52.124;5.424;2023-04-02T02:03:22;101444.69;;;6.19;93.21
71976;BME280;68326;52.124;5.424;2023-04-02T02:05:49;101442.13;;;6.17;93.48
71976;BME280;68326;52.124;5.424;2023-04-02T02:08:25;101458.47;;;6.19;92.89
71976;BME280;68326;52.124;5.424;2023-04-02T02:10:54;101454.13;;;6.20;93.72
71976;BME280;68326;52.124;5.424;2023-04-02T02:13:21;101460.19;;;6.19;93.98
71976;BME280;68326;52.124;5.424;2023-04-02T02:15:48;101463.69;;;6.16;94.49
71976;BME280;68326;52.124;5.424;2023-04-02T02:18:18;101472.25;;;6.18;94.45
71976;BME280;68326;52.124;5.424;2023-04-02T02:20:50;101471.44;;;6.16;94.16
71976;BME280;68326;52.124;5.424;2023-04-02T02:23:18;101477.41;;;6.18;94.05
71976;BME280;68326;52.124;5.424;2023-04-02T02:25:46;101484.31;;;6.18;94.03
71976;BME280;68326;52.124;5.424;2023-04-02T02:28:17;101481.81;;;6.15;93.77
71976;BME280;68326;52.124;5.424;2023-04-02T02:30:54;101484.56;;;6.05;93.47
71976;BME280;68326;52.124;5.424;2023-04-02T02:33:30;101499.44;;;5.94;93.28
71976;BME280;68326;52.124;5.424;2023-04-02T02:36:14;101503.03;;;5.87;93.51
71976;BME280;68326;52.124;5.424;2023-04-02T02:38:52;101504.06;;;5.78;93.52
71976;BME280;68326;52.124;5.424;2023-04-02T02:41:36;101512.78;;;5.71;93.27
71976;BME280;68326;52.124;5.424;2023-04-02T02:46:42;101517.22;;;5.66;93.96
71976;BME280;68326;52.124;5.424;2023-04-02T02:49:20;101522.41;;;5.63;93.78
71976;BME280;68326;52.124;5.424;2023-04-02T02:51:53;101534.59;;;5.56;93.92
71976;BME280;68326;52.124;5.424;2023-04-02T02:54:22;101534.66;;;5.53;94.16
71976;BME280;68326;52.124;5.424;2023-04-02T02:56:57;101544.91;;;5.58;94.88
71976;BME280;68326;52.124;5.424;2023-04-02T02:59:27;101547.56;;;5.53;95.10
71976;BME280;68326;52.124;5.424;2023-04-02T03:01:55;101557.97;;;5.48;94.66
71976;BME280;68326;52.124;5.424;2023-04-02T03:04:22;101558.84;;;5.47;94.54
71976;BME280;68326;52.124;5.424;2023-04-02T03:06:51;101570.00;;;5.49;94.53
71976;BME280;68326;52.124;5.424;2023-04-02T03:09:44;101574.22;;;5.54;94.08
71976;BME280;68326;52.124;5.424;2023-04-02T03:12:24;101581.03;;;5.59;94.10
71976;BME280;68326;52.124;5.424;2023-04-02T03:15:02;101579.38;;;5.54;94.10
71976;BME280;68326;52.124;5.424;2023-04-02T03:17:40;101582.09;;;5.46;93.57
71976;BME280;68326;52.124;5.424;2023-04-02T03:25:38;101597.53;;;5.49;93.31
71976;BME280;68326;52.124;5.424;2023-04-02T03:28:12;101607.03;;;5.48;93.50
71976;BME280;68326;52.124;5.424;2023-04-02T03:30:49;101605.31;;;5.47;93.59
71976;BME280;68326;52.124;5.424;2023-04-02T03:33:34;101618.22;;;5.47;92.89
71976;BME280;68326;52.124;5.424;2023-04-02T03:36:30;101625.13;;;5.45;93.55
71976;BME280;68326;52.124;5.424;2023-04-02T03:39:14;101628.56;;;5.46;93.00
71976;BME280;68326;52.124;5.424;2023-04-02T03:41:46;101629.44;;;5.46;92.55
71976;BME280;68326;52.124;5.424;2023-04-02T03:44:26;101645.78;;;5.44;92.60
71976;BME280;68326;52.124;5.424;2023-04-02T03:46:57;101646.84;;;5.34;91.48
71976;BME280;68326;52.124;5.424;2023-04-02T03:49:42;101655.44;;;5.32;91.76
71976;BME280;68326;52.124;5.424;2023-04-02T03:52:38;101659.75;;;5.32;92.11
71976;BME280;68326;52.124;5.424;2023-04-02T03:55:33;101661.44;;;5.33;92.21
71976;BME280;68326;52.124;5.424;2023-04-02T03:58:06;101664.00;;;5.38;91.18
71976;BME280;68326;52.124;5.424;2023-04-02T04:00:38;101671.75;;;5.35;91.25
71976;BME280;68326;52.124;5.424;2023-04-02T04:03:15;101679.50;;;5.35;90.79
71976;BME280;68326;52.124;5.424;2023-04-02T04:05:47;101687.22;;;5.36;91.53
71976;BME280;68326;52.124;5.424;2023-04-02T04:08:22;101684.66;;;5.36;90.68
71976;BME280;68326;52.124;5.424;2023-04-02T04:10:54;101688.97;;;5.34;90.79
71976;BME280;68326;52.124;5.424;2023-04-02T04:13:30;101695.03;;;5.31;91.00
71976;BME280;68326;52.124;5.424;2023-04-02T04:16:04;101701.88;;;5.36;91.41
71976;BME280;68326;52.124;5.424;2023-04-02T04:18:48;101710.44;;;5.36;90.40
71976;BME280;68326;52.124;5.424;2023-04-02T04:21:27;101719.19;;;5.26;90.12
71976;BME280;68326;52.124;5.424;2023-04-02T04:24:15;101720.19;;;5.16;89.22
71976;BME280;68326;52.124;5.424;2023-04-02T04:26:43;101728.84;;;5.13;89.54
71976;BME280;68326;52.124;5.424;2023-04-02T04:29:26;101733.22;;;5.06;88.35
71976;BME280;68326;52.124;5.424;2023-04-02T04:32:19;101737.63;;;5.00;88.25
71976;BME280;68326;52.124;5.424;2023-04-02T04:34:57;101747.94;;;4.98;88.68
71976;BME280;68326;52.124;5.424;2023-04-02T04:37:30;101760.91;;;4.92;87.48
71976;BME280;68326;52.124;5.424;2023-04-02T04:41:03;101757.56;;;4.85;87.16
71976;BME280;68326;52.124;5.424;2023-04-02T04:43:17;101758.53;;;4.74;87.09
71976;BME280;68326;52.124;5.424;2023-04-02T04:45:59;101774.88;;;4.74;86.56
71976;BME280;68326;52.124;5.424;2023-04-02T04:48:34;101774.06;;;4.67;86.61
71976;BME280;68326;52.124;5.424;2023-04-02T04:51:24;101783.59;;;4.64;87.08
71976;BME280;68326;52.124;5.424;2023-04-02T04:53:53;101788.75;;;4.62;87.12
71976;BME280;68326;52.124;5.424;2023-04-02T04:56:24;101790.47;;;4.63;87.32
71976;BME280;68326;52.124;5.424;2023-04-02T04:58:57;101793.91;;;4.65;86.81
71976;BME280;68326;52.124;5.424;2023-04-02T05:01:40;101805.97;;;4.60;87.44
71976;BME280;68326;52.124;5.424;2023-04-02T05:06:53;101810.16;;;4.67;88.33
71976;BME280;68326;52.124;5.424;2023-04-02T05:09:29;101818.78;;;4.66;87.62
71976;BME280;68326;52.124;5.424;2023-04-02T05:14:41;101837.00;;;4.49;86.53
71976;BME280;68326;52.124;5.424;2023-04-02T05:17:20;101843.09;;;4.39;85.18
71976;BME280;68326;52.124;5.424;2023-04-02T05:19:58;101859.56;;;4.21;84.20
71976;BME280;68326;52.124;5.424;2023-04-02T05:22:36;101864.75;;;4.17;84.68
71976;BME280;68326;52.124;5.424;2023-04-02T05:25:14;101870.78;;;4.13;84.55
71976;BME280;68326;52.124;5.424;2023-04-02T05:27:59;101864.84;;;4.06;84.90
71976;BME280;68326;52.124;5.424;2023-04-02T05:30:36;101870.06;;;3.92;84.46
71976;BME280;68326;52.124;5.424;2023-04-02T05:33:12;101885.53;;;3.86;85.14
71976;BME280;68326;52.124;5.424;2023-04-02T05:35:44;101886.41;;;3.83;84.38
71976;BME280;68326;52.124;5.424;2023-04-02T05:38:24;101896.72;;;3.85;84.96
71976;BME280;68326;52.124;5.424;2023-04-02T05:41:04;101906.13;;;3.87;84.93
71976;BME280;68326;52.124;5.424;2023-04-02T05:43:33;101907.03;;;3.79;84.37
71976;BME280;68326;52.124;5.424;2023-04-02T05:46:15;101915.66;;;3.65;84.78
71976;BME280;68326;52.124;5.424;2023-04-02T05:48:43;101905.44;;;3.59;85.20
71976;BME280;68326;52.124;5.424;2023-04-02T05:51:17;101927.72;;;3.60;84.86
71976;BME280;68326;52.124;5.424;2023-04-02T05:53:52;101923.44;;;3.55;85.63
71976;BME280;68326;52.124;5.424;2023-04-02T05:56:29;101931.16;;;3.59;85.51
71976;BME280;68326;52.124;5.424;2023-04-02T05:59:10;101942.28;;;3.57;84.46
71976;BME280;68326;52.124;5.424;2023-04-02T06:01:45;101944.94;;;3.44;85.29
71976;BME280;68326;52.124;5.424;2023-04-02T06:04:40;101948.38;;;3.40;85.53
71976;BME280;68326;52.124;5.424;2023-04-02T06:07:12;101948.38;;;3.40;85.28
71976;BME280;68326;52.124;5.424;2023-04-02T06:09:45;101968.91;;;3.48;83.86
71976;BME280;68326;52.124;5.424;2023-04-02T06:14:52;101986.06;;;3.46;84.69
71976;BME280;68326;52.124;5.424;2023-04-02T06:17:19;101995.50;;;3.50;85.88
71976;BME280;68326;52.124;5.424;2023-04-02T06:19:46;101998.97;;;3.44;84.58
71976;BME280;68326;52.124;5.424;2023-04-02T06:22:21;102001.53;;;3.49;85.61
71976;BME280;68326;52.124;5.424;2023-04-02T06:24:52;102008.38;;;3.53;84.71
71976;BME280;68326;52.124;5.424;2023-04-02T06:27:22;102010.09;;;3.51;84.59
71976;BME280;68326;52.124;5.424;2023-04-02T06:29:52;102020.38;;;3.42;83.88
71976;BME280;68326;52.124;5.424;2023-04-02T06:32:22;102022.97;;;3.43;84.54
71976;BME280;68326;52.124;5.424;2023-04-02T06:34:52;102031.53;;;3.52;84.38
71976;BME280;68326;52.124;5.424;2023-04-02T06:39:47;102035.81;;;3.53;84.50
71976;BME280;68326;52.124;5.424;2023-04-02T06:42:34;102045.25;;;3.47;84.78
71976;BME280;68326;52.124;5.424;2023-04-02T06:45:03;102042.69;;;3.43;84.39
71976;BME280;68326;52.124;5.424;2023-04-02T06:47:38;102048.69;;;3.50;85.48
71976;BME280;68326;52.124;5.424;2023-04-02T06:50:23;102046.97;;;3.58;85.34
71976;BME280;68326;52.124;5.424;2023-04-02T06:52:55;102055.56;;;3.61;85.13
71976;BME280;68326;52.124;5.424;2023-04-02T06:55:47;102058.13;;;3.60;85.32
71976;BME280;68326;52.124;5.424;2023-04-02T06:58:17;102067.53;;;3.70;85.03
71976;BME280;68326;52.124;5.424;2023-04-02T07:00:45;102070.09;;;3.72;85.44
71976;BME280;68326;52.124;5.424;2023-04-02T07:03:32;102080.38;;;3.84;85.58
71976;BME280;68326;52.124;5.424;2023-04-02T07:06:01;102092.38;;;3.88;84.84
71976;BME280;68326;52.124;5.424;2023-04-02T07:08:27;102095.00;;;3.74;84.21
71976;BME280;68326;52.124;5.424;2023-04-02T07:10:54;102091.53;;;3.67;85.22
71976;BME280;68326;52.124;5.424;2023-04-02T07:13:22;102109.56;;;3.77;84.78
71976;BME280;68326;52.124;5.424;2023-04-02T07:15:51;102110.44;;;3.71;84.53
71976;BME280;68326;52.124;5.424;2023-04-02T07:18:25;102121.59;;;3.70;84.65
71976;BME280;68326;52.124;5.424;2023-04-02T07:20:52;102117.31;;;3.72;84.57
71976;BME280;68326;52.124;5.424;2023-04-02T07:23:19;102120.72;;;3.82;85.91
71976;BME280;68326;52.124;5.424;2023-04-02T07:25:51;102131.00;;;3.88;84.88
71976;BME280;68326;52.124;5.424;2023-04-02T07:28:18;102135.28;;;3.87;84.62
71976;BME280;68326;52.124;5.424;2023-04-02T07:30:47;102145.63;;;3.78;83.66
71976;BME280;68326;52.124;5.424;2023-04-02T07:33:16;102162.78;;;3.67;84.75
71976;BME280;68326;52.124;5.424;2023-04-02T07:35:43;102158.47;;;3.63;84.83
71976;BME280;68326;52.124;5.424;2023-04-02T07:38:10;102161.06;;;3.64;84.52
71976;BME280;68326;52.124;5.424;2023-04-02T07:40:36;102159.31;;;3.70;85.85
71976;BME280;68326;52.124;5.424;2023-04-02T07:43:04;102166.22;;;3.83;84.96
71976;BME280;68326;52.124;5.424;2023-04-02T07:45:30;102173.06;;;3.72;85.13
71976;BME280;68326;52.124;5.424;2023-04-02T07:47:57;102170.50;;;3.62;84.43
71976;BME280;68326;52.124;5.424;2023-04-02T07:50:29;102171.34;;;3.69;85.75
71976;BME280;68326;52.124;5.424;2023-04-02T07:52:55;102174.78;;;3.77;84.78
71976;BME280;68326;52.124;5.424;2023-04-02T07:55:22;102184.22;;;3.80;85.53
71976;BME280;68326;52.124;5.424;2023-04-02T07:57:53;102184.22;;;3.81;85.53
71976;BME280;68326;52.124;5.424;2023-04-02T08:00:22;102185.09;;;3.85;86.43
71976;BME280;68326;52.124;5.424;2023-04-02T08:02:49;102195.38;;;3.90;85.25
71976;BME280;68326;52.124;5.424;2023-04-02T08:05:16;102195.38;;;3.79;84.74
71976;BME280;68326;52.124;5.424;2023-04-02T08:07:50;102199.69;;;3.83;85.63
71976;BME280;68326;52.124;5.424;2023-04-02T08:10:17;102199.66;;;3.84;84.49
71976;BME280;68326;52.124;5.424;2023-04-02T08:12:44;102204.81;;;3.75;84.94
71976;BME280;68326;52.124;5.424;2023-04-02T08:15:14;102210.81;;;3.82;86.25
71976;BME280;68326;52.124;5.424;2023-04-02T08:17:41;102212.53;;;3.94;85.56
71976;BME280;68326;52.124;5.424;2023-04-02T08:20:17;102217.69;;;3.94;84.28
71976;BME280;68326;52.124;5.424;2023-04-02T08:22:47;102222.81;;;3.97;84.14
71976;BME280;68326;52.124;5.424;2023-04-02T08:25:15;102225.41;;;3.86;83.88
71976;BME280;68326;52.124;5.424;2023-04-02T08:27:42;102228.00;;;3.78;82.86
71976;BME280;68326;52.124;5.424;2023-04-02T08:30:11;102235.72;;;3.75;82.97
71976;BME280;68326;52.124;5.424;2023-04-02T08:32:38;102245.13;;;3.65;83.09
71976;BME280;68326;52.124;5.424;2023-04-02T08:35:10;102258.03;;;3.70;84.59
71976;BME280;68326;52.124;5.424;2023-04-02T08:37:37;102262.31;;;3.74;82.97
71976;BME280;68326;52.124;5.424;2023-04-02T08:40:04;102259.72;;;3.80;83.39
71976;BME280;68326;52.124;5.424;2023-04-02T08:43:00;102264.88;;;3.86;83.44
71976;BME280;68326;52.124;5.424;2023-04-02T08:45:37;102263.19;;;3.92;83.11
71976;BME280;68326;52.124;5.424;2023-04-02T08:48:10;102270.03;;;3.99;83.69
71976;BME280;68326;52.124;5.424;2023-04-02T08:50:40;102275.22;;;4.02;83.07
71976;BME280;68326;52.124;5.424;2023-04-02T08:53:14;102280.34;;;4.09;83.33
71976;BME280;68326;52.124;5.424;2023-04-02T08:58:49;102292.38;;;4.07;81.80
71976;BME280;68326;52.124;5.424;2023-04-02T09:01:46;102305.25;;;4.03;81.85
71976;BME280;68326;52.124;5.424;2023-04-02T09:04:22;102303.53;;;4.00;81.50
71976;BME280;68326;52.124;5.424;2023-04-02T09:06:52;102312.13;;;3.93;81.76
71976;BME280;68326;52.124;5.424;2023-04-02T09:09:21;102312.97;;;4.00;81.02
71976;BME280;68326;52.124;5.424;2023-04-02T09:14:25;102326.72;;;4.02;81.62
71976;BME280;68326;52.124;5.424;2023-04-02T09:16:59;102318.13;;;4.00;80.40
71976;BME280;68326;52.124;5.424;2023-04-02T09:19:33;102325.00;;;4.08;81.13
71976;BME280;68326;52.124;5.424;2023-04-02T09:22:19;102332.72;;;4.18;81.65
71976;BME280;68326;52.124;5.424;2023-04-02T09:24:55;102331.88;;;4.23;80.06
71976;BME280;68326;52.124;5.424;2023-04-02T09:27:24;102334.44;;;4.33;80.38
71976;BME280;68326;52.124;5.424;2023-04-02T09:32:52;102348.16;;;4.55;79.46
71976;BME280;68326;52.124;5.424;2023-04-02T09:35:21;102352.47;;;4.54;78.81
71976;BME280;68326;52.124;5.424;2023-04-02T09:43:22;102367.03;;;4.87;78.98
71976;BME280;68326;52.124;5.424;2023-04-02T09:46:00;102370.44;;;5.13;79.17
71976;BME280;68326;52.124;5.424;2023-04-02T09:48:39;102361.63;;;5.60;78.97
71976;BME280;68326;52.124;5.424;2023-04-02T09:51:15;102355.91;;;6.41;77.24
71976;BME280;68326;52.124;5.424;2023-04-02T09:53:44;102351.75;;;7.14;74.90
71976;BME280;68326;52.124;5.424;2023-04-02T09:56:19;102353.53;;;7.76;73.78
71976;BME280;68326;52.124;5.424;2023-04-02T10:01:40;102365.88;;;8.70;69.95
71976;BME280;68326;52.124;5.424;2023-04-02T10:04:43;102370.75;;;8.87;69.03
71976;BME280;68326;52.124;5.424;2023-04-02T10:07:32;102382.69;;;8.97;68.61
71976;BME280;68326;52.124;5.424;2023-04-02T10:10:16;102383.22;;;9.15;67.88
71976;BME280;68326;52.124;5.424;2023-04-02T10:13:08;102389.72;;;8.91;69.29
71976;BME280;68326;52.124;5.424;2023-04-02T10:15:39;102379.81;;;9.53;68.00
71976;BME280;68326;52.124;5.424;2023-04-02T10:20:40;102383.81;;;9.70;64.89
71976;BME280;68326;52.124;5.424;2023-04-02T10:23:17;102380.50;;;10.00;62.04
71976;BME280;68326;52.124;5.424;2023-04-02T10:25:52;102389.06;;;10.06;64.15
71976;BME280;68326;52.124;5.424;2023-04-02T10:28:49;102386.78;;;10.31;62.68
71976;BME280;68326;52.124;5.424;2023-04-02T10:31:23;102395.19;;;10.75;60.67
71976;BME280;68326;52.124;5.424;2023-04-02T10:34:00;102391.91;;;11.01;60.17
71976;BME280;68326;52.124;5.424;2023-04-02T10:36:51;102389.84;;;10.79;60.59
71976;BME280;68326;52.124;5.424;2023-04-02T10:39:33;102397.91;;;10.70;60.19
71976;BME280;68326;52.124;5.424;2023-04-02T10:42:20;102400.41;;;11.08;61.78
71976;BME280;68326;52.124;5.424;2023-04-02T10:45:00;102406.72;;;10.99;58.72
71976;BME280;68326;52.124;5.424;2023-04-02T10:50:22;102405.34;;;10.51;57.18
71976;BME280;68326;52.124;5.424;2023-04-02T10:53:05;102405.09;;;10.25;56.47
71976;BME280;68326;52.124;5.424;2023-04-02T10:55:40;102402.44;;;10.26;57.20
71976;BME280;68326;52.124;5.424;2023-04-02T10:58:26;102400.19;;;10.50;59.01
71976;BME280;68326;52.124;5.424;2023-04-02T11:00:58;102405.38;;;10.84;57.28
71976;BME280;68326;52.124;5.424;2023-04-02T11:03:31;102412.31;;;11.16;55.25
71976;BME280;68326;52.124;5.424;2023-04-02T11:06:11;102417.88;;;11.04;55.59
71976;BME280;68326;52.124;5.424;2023-04-02T11:08:45;102419.44;;;11.41;54.93
71976;BME280;68326;52.124;5.424;2023-04-02T11:11:18;102423.16;;;11.63;55.49
71976;BME280;68326;52.124;5.424;2023-04-02T11:16:19;102424.59;;;11.74;53.30
71976;BME280;68326;52.124;5.424;2023-04-02T11:22:29;102425.47;;;11.43;53.83
71976;BME280;68326;52.124;5.424;2023-04-02T11:27:31;102427.91;;;12.09;54.71
71976;BME280;68326;52.124;5.424;2023-04-02T11:30:23;102441.25;;;11.99;52.17
71976;BME280;68326;52.124;5.424;2023-04-02T11:32:50;102442.91;;;11.71;50.57
71976;BME280;68326;52.124;5.424;2023-04-02T11:38:01;102450.00;;;11.67;50.01
71976;BME280;68326;52.124;5.424;2023-04-02T11:48:50;102456.16;;;12.24;50.36
71976;BME280;68326;52.124;5.424;2023-04-02T11:53:52;102458.78;;;12.22;50.44
71976;BME280;68326;52.124;5.424;2023-04-02T11:56:44;102463.44;;;12.13;50.60
71976;BME280;68326;52.124;5.424;2023-04-02T12:04:53;102465.84;;;12.74;52.53
71976;BME280;68326;52.124;5.424;2023-04-02T12:07:33;102469.69;;;12.89;50.47
71976;BME280;68326;52.124;5.424;2023-04-02T12:10:22;102480.59;;;13.01;49.82
71976;BME280;68326;52.124;5.424;2023-04-02T12:12:49;102482.56;;;12.95;47.24
71976;BME280;68326;52.124;5.424;2023-04-02T12:17:52;102488.53;;;12.45;49.33
71976;BME280;68326;52.124;5.424;2023-04-02T12:20:30;102487.22;;;12.32;48.06
71976;BME280;68326;52.124;5.424;2023-04-02T12:22:57;102486.25;;;12.34;49.63
71976;BME280;68326;52.124;5.424;2023-04-02T12:25:32;102488.69;;;12.40;50.16
71976;BME280;68326;52.124;5.424;2023-04-02T12:28:27;102497.72;;;12.83;50.23
71976;BME280;68326;52.124;5.424;2023-04-02T12:33:38;102499.69;;;12.77;48.66
71976;BME280;68326;52.124;5.424;2023-04-02T12:36:27;102491.56;;;12.86;48.43
71976;BME280;68326;52.124;5.424;2023-04-02T12:38:55;102494.72;;;12.69;46.80
71976;BME280;68326;52.124;5.424;2023-04-02T12:44:03;102506.44;;;12.84;48.21
71976;BME280;68326;52.124;5.424;2023-04-02T12:46:31;102500.84;;;12.95;47.71
71976;BME280;68326;52.124;5.424;2023-04-02T12:52:23;102506.25;;;12.90;51.85
71976;BME280;68326;52.124;5.424;2023-04-02T12:55:01;102509.78;;;12.88;51.67
71976;BME280;68326;52.124;5.424;2023-04-02T12:59:56;102523.56;;;12.38;48.52
71976;BME280;68326;52.124;5.424;2023-04-02T13:02:25;102524.09;;;12.21;50.46
71976;BME280;68326;52.124;5.424;2023-04-02T13:04:59;102516.88;;;12.29;50.76
71976;BME280;68326;52.124;5.424;2023-04-02T13:07:31;102515.97;;;12.30;49.62
71976;BME280;68326;52.124;5.424;2023-04-02T13:10:01;102520.00;;;12.12;49.29
71976;BME280;68326;52.124;5.424;2023-04-02T13:12:38;102514.31;;;11.98;49.69
71976;BME280;68326;52.124;5.424;2023-04-02T13:15:20;102526.22;;;12.08;50.60
71976;BME280;68326;52.124;5.424;2023-04-02T13:18:20;102531.09;;;12.19;50.19
71976;BME280;68326;52.124;5.424;2023-04-02T13:20:58;102530.72;;;12.59;50.94
71976;BME280;68326;52.124;5.424;2023-04-02T13:25:56;102520.91;;;12.94;48.85
71976;BME280;68326;52.124;5.424;2023-04-02T13:28:22;102529.22;;;13.05;48.76
71976;BME280;68326;52.124;5.424;2023-04-02T13:30:49;102517.50;;;13.17;49.23
71976;BME280;68326;52.124;5.424;2023-04-02T13:33:15;102517.56;;;13.16;47.24
71976;BME280;68326;52.124;5.424;2023-04-02T13:35:43;102520.25;;;13.39;47.16
71976;BME280;68326;52.124;5.424;2023-04-02T13:38:09;102527.94;;;13.17;45.67
71976;BME280;68326;52.124;5.424;2023-04-02T13:40:37;102534.41;;;13.07;45.74
71976;BME280;68326;52.124;5.424;2023-04-02T13:43:04;102532.28;;;13.18;47.03
71976;BME280;68326;52.124;5.424;2023-04-02T13:45:34;102532.78;;;13.30;47.46
71976;BME280;68326;52.124;5.424;2023-04-02T13:48:02;102526.50;;;13.35;47.42
71976;BME280;68326;52.124;5.424;2023-04-02T13:50:31;102535.13;;;13.62;46.71
71976;BME280;68326;52.124;5.424;2023-04-02T13:52:59;102539.84;;;13.76;46.56
71976;BME280;68326;52.124;5.424;2023-04-02T13:55:30;102535.41;;;13.78;44.30
71976;BME280;68326;52.124;5.424;2023-04-02T13:58:00;102542.09;;;13.62;44.34
71976;BME280;68326;52.124;5.424;2023-04-02T14:00:26;102549.25;;;13.58;44.94
71976;BME280;68326;52.124;5.424;2023-04-02T14:03:03;102545.81;;;13.56;45.35
71976;BME280;68326;52.124;5.424;2023-04-02T14:05:40;102548.69;;;13.49;44.79
71976;BME280;68326;52.124;5.424;2023-04-02T14:22:15;102564.38;;;13.97;43.47
71976;BME280;68326;52.124;5.424;2023-04-02T14:25:06;102561.41;;;13.83;44.44
71976;BME280;68326;52.124;5.424;2023-04-02T14:28:23;102558.25;;;14.22;47.38
71976;BME280;68326;52.124;5.424;2023-04-02T14:31:07;102561.75;;;13.97;43.58
71976;BME280;68326;52.124;5.424;2023-04-02T14:33:50;102554.06;;;14.16;45.40
71976;BME280;68326;52.124;5.424;2023-04-02T14:42:00;102566.66;;;14.06;46.35
71976;BME280;68326;52.124;5.424;2023-04-02T14:44:35;102563.81;;;14.13;46.57
71976;BME280;68326;52.124;5.424;2023-04-02T14:47:24;102577.50;;;14.19;45.90
71976;BME280;68326;52.124;5.424;2023-04-02T14:50:35;102584.50;;;14.42;45.48
71976;BME280;68326;52.124;5.424;2023-04-02T14:52:56;102588.03;;;14.65;42.87
71976;BME280;68326;52.124;5.424;2023-04-02T14:55:54;102585.47;;;14.63;44.35
71976;BME280;68326;52.124;5.424;2023-04-02T14:58:25;102596.63;;;14.21;44.65
71976;BME280;68326;52.124;5.424;2023-04-02T15:00:57;102585.84;;;13.83;45.30
71976;BME280;68326;52.124;5.424;2023-04-02T15:03:36;102585.41;;;13.71;45.87
71976;BME280;68326;52.124;5.424;2023-04-02T15:06:17;102591.78;;;13.63;44.34
71976;BME280;68326;52.124;5.424;2023-04-02T15:08:49;102595.44;;;13.58;45.69
71976;BME280;68326;52.124;5.424;2023-04-02T15:11:41;102594.81;;;13.51;46.68
71976;BME280;68326;52.124;5.424;2023-04-02T15:14:22;102602.84;;;13.45;46.12
71976;BME280;68326;52.124;5.424;2023-04-02T15:16:53;102609.78;;;13.19;47.01
71976;BME280;68326;52.124;5.424;2023-04-02T15:19:19;102614.13;;;13.20;45.59
71976;BME280;68326;52.124;5.424;2023-04-02T15:28:00;102605.72;;;13.11;43.91
71976;BME280;68326;52.124;5.424;2023-04-02T15:36:19;102607.56;;;12.80;46.53
71976;BME280;68326;52.124;5.424;2023-04-02T15:41:59;102619.53;;;12.59;46.09
71976;BME280;68326;52.124;5.424;2023-04-02T15:44:29;102616.88;;;12.31;47.46
71976;BME280;68326;52.124;5.424;2023-04-02T15:47:17;102627.53;;;12.23;47.44
71976;BME280;68326;52.124;5.424;2023-04-02T15:52:19;102621.09;;;12.06;48.35
71976;BME280;68326;52.124;5.424;2023-04-02T16:00:28;102616.72;;;12.06;47.89
71976;BME280;68326;52.124;5.424;2023-04-02T16:11:24;102629.94;;;12.31;48.72
71976;BME280;68326;52.124;5.424;2023-04-02T16:14:38;102624.19;;;12.50;47.37
71976;BME280;68326;52.124;5.424;2023-04-02T16:16:41;102636.03;;;12.60;47.60